createdAt,value
2018-07-12T00:00:13.507Z,15.18
2018-07-12T00:01:13.505Z,15.11
2018-07-12T00:02:13.503Z,15.12
2018-07-12T00:03:13.503Z,15.15
2018-07-12T00:04:13.502Z,15.18
2018-07-12T00:05:13.502Z,15.14
2018-07-12T00:06:13.502Z,15.22
2018-07-12T00:07:13.500Z,15.19
2018-07-12T00:08:13.499Z,15.23
2018-07-12T00:09:13.500Z,15.12
2018-07-12T00:10:13.498Z,15.23
2018-07-12T00:11:13.501Z,15.18
2018-07-12T00:12:13.497Z,15.25
2018-07-12T00:13:13.495Z,15.11
2018-07-12T00:14:13.494Z,15.17
2018-07-12T00:15:13.494Z,15.12
2018-07-12T00:16:13.493Z,15.02
2018-07-12T00:17:13.491Z,15.05
2018-07-12T00:18:13.490Z,15.07
2018-07-12T00:19:13.494Z,15.00
2018-07-12T00:20:13.498Z,15.04
2018-07-12T00:21:13.489Z,15.00
2018-07-12T00:22:13.489Z,15.00
2018-07-12T00:23:13.486Z,14.97
2018-07-12T00:24:13.487Z,14.87
2018-07-12T00:25:13.485Z,14.97
2018-07-12T00:26:13.483Z,15.00
2018-07-12T00:27:13.481Z,14.94
2018-07-12T00:28:13.484Z,14.97
2018-07-12T00:29:13.483Z,14.87
2018-07-12T00:30:13.481Z,14.82
2018-07-12T00:31:13.479Z,14.92
2018-07-12T00:32:13.479Z,14.79
2018-07-12T00:33:13.479Z,14.89
2018-07-12T00:34:13.480Z,14.77
2018-07-12T00:35:13.477Z,14.86
2018-07-12T00:36:13.476Z,14.77
2018-07-12T00:37:13.478Z,14.89
2018-07-12T00:38:13.474Z,14.77
2018-07-12T00:39:13.478Z,14.74
2018-07-12T00:40:13.473Z,14.86
2018-07-12T00:41:13.472Z,14.71
2018-07-12T00:42:13.471Z,14.71
2018-07-12T00:43:13.469Z,14.62
2018-07-12T00:44:13.470Z,14.53
2018-07-12T00:45:13.469Z,14.53
2018-07-12T00:46:13.467Z,14.45
2018-07-12T00:47:13.467Z,14.44
2018-07-12T00:48:13.466Z,14.43
2018-07-12T00:49:13.465Z,14.31
2018-07-12T00:50:13.463Z,14.37
2018-07-12T00:51:13.466Z,14.25
2018-07-12T00:52:13.462Z,14.26
2018-07-12T00:53:13.461Z,14.34
2018-07-12T00:54:13.459Z,14.23
2018-07-12T00:55:13.459Z,14.20
2018-07-12T00:56:13.458Z,14.20
2018-07-12T00:57:13.457Z,14.23
2018-07-12T00:58:13.455Z,14.16
2018-07-12T00:59:13.453Z,14.13
2018-07-12T01:00:13.453Z,13.98
2018-07-12T01:01:13.452Z,14.13
2018-07-12T01:02:13.453Z,14.13
2018-07-12T01:03:13.448Z,14.18
2018-07-12T01:04:13.449Z,14.20
2018-07-12T01:05:13.448Z,14.15
2018-07-12T01:06:13.445Z,14.20
2018-07-12T01:07:13.445Z,14.18
2018-07-12T01:08:13.444Z,14.19
2018-07-12T01:09:13.444Z,14.19
2018-07-12T01:10:13.439Z,14.19
2018-07-12T01:11:13.440Z,14.25
2018-07-12T01:12:13.440Z,14.26
2018-07-12T01:13:13.439Z,14.23
2018-07-12T01:14:13.436Z,14.23
2018-07-12T01:15:13.436Z,14.16
2018-07-12T01:16:13.434Z,14.12
2018-07-12T01:17:13.436Z,14.16
2018-07-12T01:18:13.433Z,14.03
2018-07-12T01:19:13.430Z,14.05
2018-07-12T01:20:13.431Z,14.07
2018-07-12T01:21:13.428Z,14.04
2018-07-12T01:22:13.429Z,14.03
2018-07-12T01:23:13.426Z,13.93
2018-07-12T01:24:13.427Z,14.07
2018-07-12T01:25:13.423Z,14.05
2018-07-12T01:26:13.421Z,14.04
2018-07-12T01:27:13.420Z,14.04
2018-07-12T01:28:13.419Z,14.13
2018-07-12T01:29:13.420Z,14.13
2018-07-12T01:30:13.415Z,14.01
2018-07-12T01:31:13.414Z,14.08
2018-07-12T01:32:13.412Z,14.07
2018-07-12T01:33:13.412Z,14.08
2018-07-12T01:34:13.410Z,13.93
2018-07-12T01:35:13.410Z,14.01
2018-07-12T01:36:13.424Z,13.93
2018-07-12T01:37:13.406Z,13.80
2018-07-12T01:38:13.404Z,13.83
2018-07-12T01:39:13.403Z,13.79
2018-07-12T01:40:13.402Z,13.75
2018-07-12T01:41:13.401Z,13.78
2018-07-12T01:42:13.399Z,13.76
2018-07-12T01:43:13.401Z,13.75
2018-07-12T01:44:13.396Z,13.64
2018-07-12T01:45:13.395Z,13.73
2018-07-12T01:46:13.393Z,13.71
2018-07-12T01:47:13.392Z,13.62
2018-07-12T01:48:13.390Z,13.54
2018-07-12T01:49:13.390Z,13.70
2018-07-12T01:50:13.387Z,13.62
2018-07-12T01:51:13.386Z,13.58
2018-07-12T01:52:13.384Z,13.67
2018-07-12T01:53:13.390Z,13.65
2018-07-12T01:54:13.381Z,13.60
2018-07-12T01:55:13.380Z,13.64
2018-07-12T01:56:13.379Z,13.68
2018-07-12T01:57:13.377Z,13.70
2018-07-12T01:58:13.422Z,13.67
2018-07-12T01:59:13.374Z,13.64
2018-07-12T02:00:13.372Z,13.67
2018-07-12T02:01:13.373Z,13.67
2018-07-12T02:02:13.368Z,13.68
2018-07-12T02:03:13.369Z,13.76
2018-07-12T02:04:13.366Z,13.75
2018-07-12T02:05:13.365Z,13.68
2018-07-12T02:06:13.363Z,13.65
2018-07-12T02:07:13.361Z,13.65
2018-07-12T02:08:13.360Z,13.62
2018-07-12T02:09:13.359Z,13.70
2018-07-12T02:10:13.356Z,13.70
2018-07-12T02:11:13.355Z,13.71
2018-07-12T02:12:13.354Z,13.62
2018-07-12T02:13:13.353Z,13.70
2018-07-12T02:14:13.350Z,13.68
2018-07-12T02:15:13.349Z,13.62
2018-07-12T02:16:13.348Z,13.64
2018-07-12T02:17:13.346Z,13.65
2018-07-12T02:18:13.344Z,13.60
2018-07-12T02:19:13.342Z,13.68
2018-07-12T02:20:13.343Z,13.68
2018-07-12T02:21:13.340Z,13.64
2018-07-12T02:22:13.338Z,13.62
2018-07-12T02:23:13.336Z,13.57
2018-07-12T02:24:13.334Z,13.60
2018-07-12T02:25:13.335Z,13.62
2018-07-12T02:26:13.330Z,13.57
2018-07-12T02:27:13.329Z,13.54
2018-07-12T02:28:13.330Z,13.49
2018-07-12T02:29:13.327Z,13.57
2018-07-12T02:30:13.327Z,13.42
2018-07-12T02:31:13.322Z,13.52
2018-07-12T02:32:13.322Z,13.50
2018-07-12T02:33:13.320Z,13.42
2018-07-12T02:34:13.318Z,13.46
2018-07-12T02:35:13.375Z,13.28
2018-07-12T02:36:13.315Z,13.28
2018-07-12T02:37:13.314Z,13.26
2018-07-12T02:38:13.311Z,13.31
2018-07-12T02:39:13.310Z,13.36
2018-07-12T02:40:13.309Z,13.42
2018-07-12T02:41:13.307Z,13.45
2018-07-12T02:42:13.312Z,13.31
2018-07-12T02:43:13.304Z,13.31
2018-07-12T02:44:13.302Z,13.37
2018-07-12T02:45:13.301Z,13.37
2018-07-12T02:46:13.299Z,13.26
2018-07-12T02:47:13.296Z,13.26
2018-07-12T02:48:13.296Z,13.24
2018-07-12T02:49:13.294Z,13.28
2018-07-12T02:50:13.291Z,13.30
2018-07-12T02:51:13.290Z,13.23
2018-07-12T02:52:13.288Z,13.26
2018-07-12T02:53:13.287Z,13.24
2018-07-12T02:54:13.284Z,13.33
2018-07-12T02:55:13.284Z,13.33
2018-07-12T02:56:13.282Z,13.33
2018-07-12T02:57:13.279Z,13.39
2018-07-12T02:58:13.278Z,13.26
2018-07-12T02:59:13.276Z,13.28
2018-07-12T03:00:13.274Z,13.26
2018-07-12T03:01:13.272Z,13.42
2018-07-12T03:02:13.270Z,13.33
2018-07-12T03:03:13.267Z,13.37
2018-07-12T03:04:13.267Z,13.30
2018-07-12T03:05:13.265Z,13.30
2018-07-12T03:06:13.263Z,13.33
2018-07-12T03:07:13.261Z,13.27
2018-07-12T03:08:13.260Z,13.39
2018-07-12T03:09:13.260Z,13.33
2018-07-12T03:10:13.255Z,13.23
2018-07-12T03:11:13.255Z,13.40
2018-07-12T03:12:13.251Z,13.23
2018-07-12T03:13:13.250Z,13.31
2018-07-12T03:14:13.248Z,13.20
2018-07-12T03:15:13.246Z,13.26
2018-07-12T03:16:13.245Z,13.36
2018-07-12T03:17:13.247Z,13.33
2018-07-12T03:18:13.240Z,13.36
2018-07-12T03:19:13.239Z,13.21
2018-07-12T03:20:13.237Z,13.33
2018-07-12T03:21:13.236Z,13.24
2018-07-12T03:22:13.234Z,13.28
2018-07-12T03:23:13.232Z,13.31
2018-07-12T03:24:13.230Z,13.23
2018-07-12T03:25:13.229Z,13.20
2018-07-12T03:26:13.226Z,13.24
2018-07-12T03:27:13.224Z,13.21
2018-07-12T03:28:13.223Z,13.27
2018-07-12T03:29:13.220Z,13.27
2018-07-12T03:30:13.218Z,13.20
2018-07-12T03:31:13.215Z,13.37
2018-07-12T03:32:13.217Z,13.31
2018-07-12T03:33:13.212Z,13.24
2018-07-12T03:34:13.210Z,13.31
2018-07-12T03:35:13.208Z,13.26
2018-07-12T03:36:13.210Z,13.21
2018-07-12T03:37:13.204Z,13.19
2018-07-12T03:38:13.203Z,13.26
2018-07-12T03:39:13.200Z,13.17
2018-07-12T03:40:13.199Z,13.21
2018-07-12T03:41:13.197Z,13.12
2018-07-12T03:42:13.198Z,13.13
2018-07-12T03:43:13.193Z,13.20
2018-07-12T03:44:13.191Z,13.19
2018-07-12T03:45:13.188Z,13.09
2018-07-12T03:46:13.186Z,13.13
2018-07-12T03:47:13.184Z,13.16
2018-07-12T03:48:13.182Z,13.06
2018-07-12T03:49:13.181Z,13.09
2018-07-12T03:50:13.178Z,13.11
2018-07-12T03:51:13.177Z,13.13
2018-07-12T03:52:13.175Z,13.13
2018-07-12T03:53:13.174Z,13.20
2018-07-12T03:54:13.171Z,13.08
2018-07-12T03:55:13.169Z,13.17
2018-07-12T03:56:13.166Z,13.21
2018-07-12T03:57:13.164Z,13.12
2018-07-12T03:58:13.163Z,13.17
2018-07-12T03:59:13.160Z,13.12
2018-07-12T04:00:13.158Z,13.08
2018-07-12T04:01:13.157Z,13.17
2018-07-12T04:02:13.154Z,13.09
2018-07-12T04:03:13.152Z,13.02
2018-07-12T04:04:13.150Z,13.11
2018-07-12T04:05:13.149Z,13.06
2018-07-12T04:06:13.146Z,13.01
2018-07-12T04:07:13.143Z,13.05
2018-07-12T04:08:13.141Z,13.08
2018-07-12T04:09:13.141Z,13.11
2018-07-12T04:10:13.137Z,13.03
2018-07-12T04:11:13.135Z,13.08
2018-07-12T04:12:13.132Z,13.05
2018-07-12T04:13:13.132Z,13.02
2018-07-12T04:14:13.128Z,13.05
2018-07-12T04:15:13.127Z,13.02
2018-07-12T04:16:13.123Z,12.99
2018-07-12T04:17:13.126Z,12.99
2018-07-12T04:18:13.123Z,13.09
2018-07-12T04:19:13.119Z,13.06
2018-07-12T04:20:13.116Z,13.09
2018-07-12T04:21:13.116Z,13.11
2018-07-12T04:22:13.112Z,13.12
2018-07-12T04:23:13.111Z,13.17
2018-07-12T04:24:13.108Z,13.12
2018-07-12T04:25:13.107Z,13.16
2018-07-12T04:26:13.104Z,13.21
2018-07-12T04:27:13.101Z,13.21
2018-07-12T04:28:13.105Z,13.13
2018-07-12T04:29:13.098Z,13.24
2018-07-12T04:30:13.096Z,13.30
2018-07-12T04:31:13.093Z,13.24
2018-07-12T04:32:13.092Z,13.33
2018-07-12T04:33:13.090Z,13.27
2018-07-12T04:34:13.088Z,13.36
2018-07-12T04:35:13.086Z,13.24
2018-07-12T04:36:13.084Z,13.24
2018-07-12T04:37:13.082Z,13.24
2018-07-12T04:38:13.079Z,13.24
2018-07-12T04:39:13.077Z,13.23
2018-07-12T04:40:13.075Z,13.28
2018-07-12T04:41:13.074Z,13.26
2018-07-12T04:42:13.072Z,13.40
2018-07-12T04:43:13.071Z,13.24
2018-07-12T04:44:13.068Z,13.24
2018-07-12T04:45:13.065Z,13.28
2018-07-12T04:46:13.063Z,13.26
2018-07-12T04:47:13.061Z,13.37
2018-07-12T04:48:13.064Z,13.27
2018-07-12T04:49:13.058Z,13.37
2018-07-12T04:50:13.056Z,13.28
2018-07-12T04:51:13.099Z,13.21
2018-07-12T04:52:13.052Z,13.21
2018-07-12T04:53:13.050Z,13.28
2018-07-12T04:54:13.048Z,13.23
2018-07-12T04:55:13.046Z,13.30
2018-07-12T04:56:13.045Z,13.28
2018-07-12T04:57:13.043Z,13.26
2018-07-12T04:58:13.054Z,13.24
2018-07-12T04:59:13.039Z,13.24
2018-07-12T05:00:13.037Z,13.31
2018-07-12T05:01:13.035Z,13.31
2018-07-12T05:02:13.033Z,13.31
2018-07-12T05:03:13.031Z,13.40
2018-07-12T05:04:13.033Z,13.36
2018-07-12T05:05:13.027Z,13.43
2018-07-12T05:06:13.026Z,13.50
2018-07-12T05:07:13.023Z,13.49
2018-07-12T05:08:13.068Z,13.54
2018-07-12T05:09:13.021Z,13.64
2018-07-12T05:10:13.018Z,13.64
2018-07-12T05:11:13.017Z,13.67
2018-07-12T05:12:13.050Z,13.68
2018-07-12T05:13:13.014Z,13.71
2018-07-12T05:14:13.012Z,13.71
2018-07-12T05:15:13.009Z,13.79
2018-07-12T05:16:13.085Z,13.75
2018-07-12T05:17:13.007Z,13.78
2018-07-12T05:18:13.007Z,13.86
2018-07-12T05:19:13.004Z,13.98
2018-07-12T05:20:13.000Z,14.03
2018-07-12T05:21:13.000Z,14.01
2018-07-12T05:22:12.998Z,14.05
2018-07-12T05:23:12.998Z,14.05
2018-07-12T05:24:12.994Z,14.15
2018-07-12T05:25:12.994Z,14.25
2018-07-12T05:26:12.992Z,14.18
2018-07-12T05:27:12.993Z,14.20
2018-07-12T05:28:12.988Z,14.23
2018-07-12T05:29:12.987Z,14.30
2018-07-12T05:30:12.985Z,14.30
2018-07-12T05:31:12.984Z,14.30
2018-07-12T05:32:12.982Z,14.33
2018-07-12T05:33:12.985Z,14.37
2018-07-12T05:34:12.983Z,14.37
2018-07-12T05:35:12.978Z,14.37
2018-07-12T05:36:12.977Z,14.33
2018-07-12T05:37:12.976Z,14.38
2018-07-12T05:38:12.974Z,14.36
2018-07-12T05:39:13.012Z,14.49
2018-07-12T05:40:12.972Z,14.40
2018-07-12T05:41:12.971Z,14.55
2018-07-12T05:42:12.968Z,14.61
2018-07-12T05:43:12.969Z,14.68
2018-07-12T05:44:12.966Z,14.67
2018-07-12T05:45:12.965Z,14.70
2018-07-12T05:46:12.962Z,14.71
2018-07-12T05:47:12.962Z,14.78
2018-07-12T05:48:12.960Z,14.82
2018-07-12T05:49:12.959Z,14.87
2018-07-12T05:50:12.957Z,14.85
2018-07-12T05:51:12.957Z,14.92
2018-07-12T05:52:12.956Z,15.02
2018-07-12T05:53:12.955Z,14.99
2018-07-12T05:54:12.953Z,15.08
2018-07-12T05:55:12.952Z,15.12
2018-07-12T05:56:12.951Z,15.11
2018-07-12T05:57:12.951Z,15.10
2018-07-12T05:58:12.948Z,15.05
2018-07-12T05:59:12.951Z,15.05
2018-07-12T06:00:12.950Z,15.04
2018-07-12T06:01:12.947Z,15.15
2018-07-12T06:02:12.945Z,15.23
2018-07-12T06:03:12.944Z,15.27
2018-07-12T06:04:12.944Z,15.27
2018-07-12T06:05:12.946Z,15.32
2018-07-12T06:06:12.941Z,15.35
2018-07-12T06:07:12.941Z,15.29
2018-07-12T06:08:12.940Z,15.33
2018-07-12T06:09:12.939Z,15.36
2018-07-12T06:10:12.938Z,15.45
2018-07-12T06:11:12.937Z,15.41
2018-07-12T06:12:12.937Z,15.50
2018-07-12T06:13:12.988Z,15.50
2018-07-12T06:14:12.935Z,15.59
2018-07-12T06:15:12.935Z,15.69
2018-07-12T06:16:13.024Z,15.75
2018-07-12T06:17:13.022Z,15.72
2018-07-12T06:18:12.932Z,15.72
2018-07-12T06:19:12.932Z,15.81
2018-07-12T06:20:12.931Z,15.84
2018-07-12T06:21:12.931Z,15.92
2018-07-12T06:22:12.930Z,15.99
2018-07-12T06:23:12.942Z,16.06
2018-07-12T06:24:12.931Z,16.08
2018-07-12T06:25:12.934Z,16.22
2018-07-12T06:26:12.927Z,16.22
2018-07-12T06:27:12.928Z,16.21
2018-07-12T06:28:12.928Z,16.34
2018-07-12T06:29:12.927Z,16.39
2018-07-12T06:30:12.925Z,16.49
2018-07-12T06:31:12.926Z,16.54
2018-07-12T06:32:12.925Z,16.51
2018-07-12T06:33:12.925Z,16.61
2018-07-12T06:34:12.924Z,16.58
2018-07-12T06:35:12.925Z,16.65
2018-07-12T06:36:12.929Z,16.61
2018-07-12T06:37:12.983Z,16.77
2018-07-12T06:38:12.925Z,16.80
2018-07-12T06:39:12.923Z,16.77
2018-07-12T06:40:12.927Z,16.79
2018-07-12T06:41:12.924Z,16.79
2018-07-12T06:42:12.923Z,16.83
2018-07-12T06:43:12.923Z,16.94
2018-07-12T06:44:12.922Z,17.02
2018-07-12T06:45:12.950Z,17.01
2018-07-12T06:46:12.924Z,17.05
2018-07-12T06:47:12.924Z,17.20
2018-07-12T06:48:12.925Z,17.22
2018-07-12T06:49:12.925Z,17.34
2018-07-12T06:50:12.925Z,17.35
2018-07-12T06:51:12.925Z,17.41
2018-07-12T06:52:12.926Z,17.44
2018-07-12T06:53:12.927Z,17.42
2018-07-12T06:54:12.926Z,17.54
2018-07-12T06:55:12.928Z,17.56
2018-07-12T06:56:12.928Z,17.73
2018-07-12T06:57:12.930Z,17.71
2018-07-12T06:58:12.929Z,17.73
2018-07-12T06:59:12.929Z,17.76
2018-07-12T07:00:12.929Z,17.86
2018-07-12T07:01:12.931Z,17.94
2018-07-12T07:02:12.932Z,17.94
2018-07-12T07:03:12.932Z,17.93
2018-07-12T07:04:12.932Z,17.94
2018-07-12T07:05:12.933Z,18.00
2018-07-12T07:06:12.941Z,18.06
2018-07-12T07:07:12.934Z,18.18
2018-07-12T07:08:12.936Z,18.23
2018-07-12T07:09:12.936Z,18.28
2018-07-12T07:10:12.937Z,18.28
2018-07-12T07:11:12.939Z,18.33
2018-07-12T07:12:12.939Z,18.37
2018-07-12T07:13:12.940Z,18.37
2018-07-12T07:14:12.941Z,18.37
2018-07-12T07:15:12.942Z,18.46
2018-07-12T07:16:12.944Z,18.53
2018-07-12T07:17:13.510Z,18.57
2018-07-12T07:18:12.947Z,18.60
2018-07-12T07:19:12.955Z,18.66
2018-07-12T07:20:13.002Z,18.76
2018-07-12T07:21:12.950Z,18.73
2018-07-12T07:22:12.950Z,18.74
2018-07-12T07:23:12.952Z,18.79
2018-07-12T07:24:12.954Z,18.82
2018-07-12T07:25:12.956Z,18.76
2018-07-12T07:26:12.992Z,18.78
2018-07-12T07:27:12.958Z,18.91
2018-07-12T07:28:12.960Z,18.92
2018-07-12T07:29:12.963Z,18.91
2018-07-12T07:30:13.322Z,19.00
2018-07-12T07:31:12.965Z,19.08
2018-07-12T07:32:12.967Z,19.35
2018-07-12T07:33:12.969Z,19.63
2018-07-12T07:34:12.970Z,19.93
2018-07-12T07:35:12.973Z,20.18
2018-07-12T07:36:12.993Z,20.40
2018-07-12T07:37:12.980Z,20.67
2018-07-12T07:38:12.982Z,20.77
2018-07-12T07:39:12.986Z,20.90
2018-07-12T07:40:13.173Z,21.14
2018-07-12T07:41:12.997Z,21.35
2018-07-12T07:42:13.005Z,21.45
2018-07-12T07:43:13.069Z,21.66
2018-07-12T07:44:13.014Z,21.70
2018-07-12T07:45:13.022Z,22.01
2018-07-12T07:46:13.028Z,22.33
2018-07-12T07:47:13.037Z,22.59
2018-07-12T07:48:13.043Z,22.68
2018-07-12T07:49:13.055Z,22.99
2018-07-12T07:50:13.058Z,23.16
2018-07-12T07:51:13.066Z,23.42
2018-07-12T07:52:13.074Z,23.59
2018-07-12T07:53:13.151Z,23.66
2018-07-12T07:54:13.090Z,23.47
2018-07-12T07:55:13.409Z,23.33
2018-07-12T07:58:22.328Z,22.63
2018-07-12T07:59:22.335Z,22.44
2018-07-12T08:00:22.344Z,22.49
2018-07-12T08:01:22.439Z,22.38
2018-07-12T08:02:22.359Z,22.26
2018-07-12T08:03:22.373Z,22.38
2018-07-12T08:04:22.372Z,22.37
2018-07-12T08:05:22.381Z,22.36
2018-07-12T08:06:22.389Z,22.37
2018-07-12T08:07:22.395Z,22.36
2018-07-12T08:08:22.405Z,22.41
2018-07-12T08:09:22.466Z,22.44
2018-07-12T08:10:22.419Z,22.51
2018-07-12T08:11:22.427Z,22.84
2018-07-12T08:12:22.436Z,23.07
2018-07-12T08:13:22.445Z,23.42
2018-07-12T08:14:22.458Z,23.82
2018-07-12T08:15:22.471Z,24.09
2018-07-12T08:16:22.489Z,24.16
2018-07-12T08:17:22.487Z,24.31
2018-07-12T08:18:22.499Z,24.55
2018-07-12T08:19:22.508Z,24.65
2018-07-12T08:20:22.521Z,24.56
2018-07-12T08:21:22.533Z,24.21
2018-07-12T08:22:22.544Z,24.07
2018-07-12T08:23:22.595Z,24.06
2018-07-12T08:24:22.565Z,24.31
2018-07-12T08:25:22.579Z,24.63
2018-07-12T08:26:22.590Z,24.65
2018-07-12T08:27:22.603Z,24.75
2018-07-12T08:28:22.615Z,25.16
2018-07-12T08:29:22.625Z,25.29
2018-07-12T08:30:22.638Z,25.68
2018-07-12T08:31:22.835Z,25.95
2018-07-12T08:32:22.663Z,26.13
2018-07-12T08:33:22.762Z,26.24
2018-07-12T08:34:22.687Z,25.95
2018-07-12T08:35:22.702Z,26.08
2018-07-12T08:36:22.714Z,26.27
2018-07-12T08:37:23.395Z,26.34
2018-07-12T08:38:22.741Z,26.51
2018-07-12T08:39:22.755Z,26.52
2018-07-12T08:40:22.771Z,26.60
2018-07-12T08:41:22.782Z,26.41
2018-07-12T08:42:22.803Z,26.08
2018-07-12T08:43:22.812Z,25.70
2018-07-12T08:44:22.822Z,25.76
2018-07-12T08:45:22.837Z,26.04
2018-07-12T08:46:22.921Z,26.36
2018-07-12T08:47:22.865Z,26.60
2018-07-12T08:48:22.906Z,26.34
2018-07-12T08:49:22.893Z,26.60
2018-07-12T08:50:22.906Z,26.68
2018-07-12T08:51:22.919Z,26.92
2018-07-12T08:52:22.958Z,27.03
2018-07-12T08:53:22.948Z,26.98
2018-07-12T08:54:23.228Z,27.07
2018-07-12T08:55:23.193Z,27.05
2018-07-12T08:56:22.990Z,27.08
2018-07-12T08:57:23.005Z,26.83
2018-07-12T08:58:23.020Z,26.16
2018-07-12T08:59:23.225Z,26.11
2018-07-12T09:00:23.048Z,26.26
2018-07-12T09:01:23.261Z,26.16
2018-07-12T09:02:23.079Z,26.30
2018-07-12T09:03:23.092Z,26.42
2018-07-12T09:04:23.106Z,26.37
2018-07-12T09:05:23.122Z,26.10
2018-07-12T09:06:23.135Z,25.88
2018-07-12T09:07:23.151Z,25.88
2018-07-12T09:08:23.165Z,25.99
2018-07-12T09:09:23.178Z,26.16
2018-07-12T09:10:23.195Z,26.34
2018-07-12T09:11:23.207Z,26.44
2018-07-12T09:12:23.222Z,26.31
2018-07-12T09:13:23.239Z,26.31
2018-07-12T09:14:23.251Z,26.46
2018-07-12T09:15:23.613Z,26.61
2018-07-12T09:16:23.278Z,26.53
2018-07-12T09:17:23.292Z,26.67
2018-07-12T09:18:23.308Z,26.68
2018-07-12T09:19:23.321Z,26.83
2018-07-12T09:20:23.343Z,26.93
2018-07-12T09:21:23.349Z,27.01
2018-07-12T09:22:23.365Z,26.93
2018-07-12T09:23:23.384Z,27.15
2018-07-12T09:24:23.392Z,27.28
2018-07-12T09:25:23.423Z,27.45
2018-07-12T09:26:23.422Z,27.41
2018-07-12T09:27:23.437Z,27.23
2018-07-12T09:28:23.452Z,27.28
2018-07-12T09:29:23.466Z,27.33
2018-07-12T09:30:23.480Z,27.38
2018-07-12T09:31:23.495Z,27.60
2018-07-12T09:32:23.509Z,27.58
2018-07-12T09:33:23.529Z,27.41
2018-07-12T09:34:23.538Z,27.26
2018-07-12T09:35:23.742Z,26.88
2018-07-12T09:36:23.567Z,26.60
2018-07-12T09:37:23.630Z,26.44
2018-07-12T09:38:23.597Z,26.73
2018-07-12T09:39:23.611Z,26.96
2018-07-12T09:40:23.627Z,26.86
2018-07-12T09:41:23.642Z,26.91
2018-07-12T09:42:23.653Z,27.01
2018-07-12T09:43:23.668Z,27.29
2018-07-12T09:44:23.921Z,27.40
2018-07-12T09:45:23.695Z,27.60
2018-07-12T09:46:23.709Z,27.61
2018-07-12T09:47:23.776Z,27.22
2018-07-12T09:48:23.736Z,27.26
2018-07-12T09:49:23.831Z,27.19
2018-07-12T09:50:23.764Z,27.33
2018-07-12T09:51:23.778Z,27.41
2018-07-12T09:52:23.792Z,27.28
2018-07-12T09:53:23.806Z,26.91
2018-07-12T09:54:25.191Z,26.30
2018-07-12T09:55:23.835Z,26.11
2018-07-12T09:56:23.915Z,26.08
2018-07-12T09:57:23.862Z,26.27
2018-07-12T09:58:23.877Z,26.44
2018-07-12T09:59:23.889Z,26.61
2018-07-12T10:00:23.905Z,26.91
2018-07-12T10:01:23.970Z,26.98
2018-07-12T10:02:23.932Z,26.98
2018-07-12T10:03:23.944Z,27.15
2018-07-12T10:04:23.956Z,27.20
2018-07-12T10:05:23.971Z,27.08
2018-07-12T10:06:23.985Z,26.92
2018-07-12T10:07:23.998Z,26.91
2018-07-12T10:08:24.011Z,27.07
2018-07-12T10:09:24.024Z,26.98
2018-07-12T10:10:24.062Z,27.26
2018-07-12T10:11:24.052Z,27.41
2018-07-12T10:12:24.064Z,27.66
2018-07-12T10:13:24.081Z,27.79
2018-07-12T10:14:24.091Z,27.97
2018-07-12T10:15:24.104Z,28.04
2018-07-12T10:16:24.115Z,28.00
2018-07-12T10:17:24.130Z,28.03
2018-07-12T10:18:24.148Z,27.91
2018-07-12T10:19:24.355Z,27.85
2018-07-12T10:20:24.171Z,27.79
2018-07-12T10:21:24.417Z,27.73
2018-07-12T10:22:24.445Z,27.61
2018-07-12T10:23:24.271Z,27.55
2018-07-12T10:24:24.223Z,27.37
2018-07-12T10:25:24.236Z,27.00
2018-07-12T10:26:24.250Z,26.68
2018-07-12T10:27:24.266Z,26.61
2018-07-12T10:28:24.275Z,26.76
2018-07-12T10:29:24.290Z,27.07
2018-07-12T10:30:24.301Z,27.38
2018-07-12T10:31:24.321Z,27.57
2018-07-12T10:32:24.327Z,27.79
2018-07-12T10:33:24.339Z,27.85
2018-07-12T10:34:24.353Z,28.00
2018-07-12T10:35:24.365Z,28.19
2018-07-12T10:36:24.380Z,28.22
2018-07-12T10:37:24.390Z,28.16
2018-07-12T10:38:24.403Z,27.85
2018-07-12T10:39:24.416Z,27.28
2018-07-12T10:40:24.428Z,26.97
2018-07-12T10:41:24.442Z,26.60
2018-07-12T10:42:24.662Z,26.59
2018-07-12T10:43:25.074Z,26.91
2018-07-12T10:44:24.986Z,27.04
2018-07-12T10:45:24.493Z,26.56
2018-07-12T10:46:24.505Z,26.15
2018-07-12T10:47:24.517Z,26.31
2018-07-12T10:48:24.528Z,26.76
2018-07-12T10:49:24.541Z,26.76
2018-07-12T10:50:24.681Z,26.53
2018-07-12T10:51:24.737Z,26.30
2018-07-12T10:52:24.882Z,26.46
2018-07-12T10:53:24.596Z,26.63
2018-07-12T10:54:24.603Z,26.81
2018-07-12T10:55:24.615Z,26.11
2018-07-12T10:56:24.624Z,25.74
2018-07-12T10:57:24.635Z,25.73
2018-07-12T10:58:24.647Z,25.48
2018-07-12T10:59:24.658Z,25.14
2018-07-12T11:00:24.668Z,24.82
2018-07-12T11:01:24.677Z,25.11
2018-07-12T11:02:24.766Z,25.68
2018-07-12T11:03:24.698Z,26.07
2018-07-12T11:04:24.742Z,26.39
2018-07-12T11:05:24.769Z,26.67
2018-07-12T11:06:24.730Z,26.89
2018-07-12T11:07:24.741Z,27.13
2018-07-12T11:08:24.750Z,27.40
2018-07-12T11:09:24.762Z,27.63
2018-07-12T11:10:24.783Z,27.72
2018-07-12T11:11:24.784Z,27.79
2018-07-12T11:12:24.793Z,27.68
2018-07-12T11:13:24.805Z,27.40
2018-07-12T11:14:24.817Z,27.26
2018-07-12T11:15:24.828Z,26.82
2018-07-12T11:16:24.839Z,26.29
2018-07-12T11:17:24.850Z,25.80
2018-07-12T11:18:24.861Z,25.98
2018-07-12T11:19:24.872Z,26.13
2018-07-12T11:20:24.882Z,26.30
2018-07-12T11:21:24.900Z,26.24
2018-07-12T11:22:24.905Z,26.24
2018-07-12T11:23:24.997Z,26.31
2018-07-12T11:24:24.925Z,26.31
2018-07-12T11:25:24.941Z,25.70
2018-07-12T11:26:24.948Z,25.18
2018-07-12T11:27:25.065Z,24.51
2018-07-12T11:28:24.968Z,24.06
2018-07-12T11:29:24.978Z,24.09
2018-07-12T11:30:24.991Z,24.10
2018-07-12T11:31:24.999Z,24.21
2018-07-12T11:32:25.098Z,24.31
2018-07-12T11:33:25.119Z,24.13
2018-07-12T11:34:25.028Z,24.26
2018-07-12T11:35:25.039Z,24.34
2018-07-12T11:36:25.046Z,24.56
2018-07-12T11:37:25.059Z,24.79
2018-07-12T11:38:25.068Z,24.78
2018-07-12T11:39:25.139Z,24.92
2018-07-12T11:40:25.223Z,25.21
2018-07-12T11:41:25.285Z,25.56
2018-07-12T11:42:25.104Z,25.99
2018-07-12T11:43:25.112Z,26.04
2018-07-12T11:44:25.128Z,25.99
2018-07-12T11:45:25.176Z,25.92
2018-07-12T11:46:25.140Z,25.88
2018-07-12T11:47:25.148Z,25.46
2018-07-12T11:48:25.176Z,24.86
2018-07-12T11:49:25.168Z,24.55
2018-07-12T11:50:25.176Z,24.71
2018-07-12T11:51:25.185Z,24.68
2018-07-12T11:52:25.192Z,25.14
2018-07-12T11:53:25.391Z,25.24
2018-07-12T11:54:25.210Z,25.33
2018-07-12T11:55:25.283Z,25.29
2018-07-12T11:56:25.227Z,25.21
2018-07-12T11:57:25.236Z,25.24
2018-07-12T11:58:25.248Z,25.26
2018-07-12T11:59:25.253Z,25.09
2018-07-12T12:00:25.262Z,25.11
2018-07-12T12:01:25.289Z,24.61
2018-07-12T12:02:25.281Z,24.10
2018-07-12T12:03:25.288Z,23.81
2018-07-12T12:04:25.295Z,24.04
2018-07-12T12:05:25.320Z,24.09
2018-07-12T12:06:25.312Z,24.21
2018-07-12T12:07:25.321Z,24.43
2018-07-12T12:08:25.327Z,24.47
2018-07-12T12:09:25.336Z,24.53
2018-07-12T12:10:25.344Z,24.85
2018-07-12T12:11:25.381Z,25.01
2018-07-12T12:12:25.359Z,25.09
2018-07-12T12:13:25.366Z,25.16
2018-07-12T12:14:25.376Z,25.11
2018-07-12T12:15:25.383Z,25.26
2018-07-12T12:16:25.390Z,25.55
2018-07-12T12:17:25.407Z,25.80
2018-07-12T12:18:25.406Z,25.80
2018-07-12T12:19:25.454Z,26.01
2018-07-12T12:20:25.420Z,26.13
2018-07-12T12:21:25.429Z,26.15
2018-07-12T12:22:25.442Z,26.18
2018-07-12T12:23:25.661Z,26.23
2018-07-12T12:24:25.469Z,25.95
2018-07-12T12:25:25.463Z,25.70
2018-07-12T12:26:25.472Z,25.56
2018-07-12T12:27:25.594Z,25.63
2018-07-12T12:28:25.486Z,25.81
2018-07-12T12:29:25.494Z,25.66
2018-07-12T12:30:25.502Z,25.71
2018-07-12T12:31:25.523Z,25.83
2018-07-12T12:32:25.608Z,26.07
2018-07-12T12:33:25.554Z,26.23
2018-07-12T12:34:25.534Z,25.98
2018-07-12T12:35:25.543Z,25.77
2018-07-12T12:36:25.550Z,25.78
2018-07-12T12:37:25.556Z,25.78
2018-07-12T12:38:25.565Z,25.92
2018-07-12T12:39:25.577Z,25.88
2018-07-12T12:40:25.748Z,26.15
2018-07-12T12:41:25.589Z,26.13
2018-07-12T12:42:25.602Z,26.08
2018-07-12T12:43:25.605Z,26.01
2018-07-12T12:44:25.611Z,26.27
2018-07-12T12:45:25.621Z,26.16
2018-07-12T12:46:25.641Z,26.01
2018-07-12T12:47:25.636Z,26.10
2018-07-12T12:48:25.642Z,26.19
2018-07-12T12:49:25.697Z,26.46
2018-07-12T12:50:25.662Z,26.70
2018-07-12T12:51:25.719Z,27.01
2018-07-12T12:52:25.674Z,27.13
2018-07-12T12:53:25.683Z,27.15
2018-07-12T12:54:27.865Z,27.33